Aérodrome :
LOGIN :

S'inscrire | Disclaimer

   EN    FR    IT 

 










Légende :    VFR   VFR Marginal   IFR   IFR Intensif   IFR Très Intensif
Visi : 
Plafond : 
>= 8 km
>= 3000ft
5 à 8 km
1000 à 3000 ft
1500m à 5 km
500 à 1000 ft
800 à 1500m
200 à 500 ft
< 800m
< 200 ft
Symboles :   Orages  Brouillard  Fortes neiges  Fortes précipitations  Vent > 20 kt
SIGMETs :   Divers  Orages  Givrage  Turbulence  Onde Orograph.  Cendres Volcan.






- Altitude de l'aérodrome : 791 ft
- Code IATA : KRK


EPKK - Krakow-Balice

DERNIER METAR :
  • 221900Z 08003KT CAVOK 14/12 Q1023

METARs EXPIRÉS :
  • 221830Z VRB02KT CAVOK 14/13 Q1023
  • 221800Z VRB01KT CAVOK 14/12 Q1023
  • 221730Z 07001KT CAVOK 14/12 Q1023
  • 221700Z VRB01KT CAVOK 16/13 Q1023
  • 221630Z 29002KT CAVOK 16/13 Q1022
  • 221600Z VRB01KT CAVOK 17/14 Q1022

TAF TAF EPKK
Valide du 22 à 18h jusqu'au 23 à 18h UTC


221730Z 2218/2318 VRB02KT 7000 NSC
BECMG 2218/2221 2500 BR
BECMG 2221/2224 0400 FG
BECMG 2301/2304 0100 FG OVC001
BECMG 2308/2311 05010KT 4000 BR BKN009
TEMPO 2311/2317 7000 BKN015



MET'MAP, la Météo Aéronautique d'un coup d'oeil ! - Copyright ORBIFLY Décembre 2007 - Disclaimer

ORBIFLY MET'MAP TEAM :

Programmation & Développement : Alexandra Zaïnal
Conception & Développement : Baudouin d'Aumeries
Co-Programmation & Développement : Marc-Olivier Méhu
Soutien technique & logistique : Manuel Goepfert

Contact : metmap@orbifly.com




SOURCES & CREDITS :

   NOAA